Time;durP1;ratioP1;P1;durP2;ratioP2;P2;SDS_P1;SDS_P2;PMS_P1;PMS_P2;Temp;Humidity;BMP_temperature;BMP_pressure;BME280_temperature;BME280_humidity;BME280_pressure;Samples;Min_cycle;Max_cycle;Signal;HPM_P1;HPM_P2
2023/05/24 00:00:54;;;;;;;;;5.00;5.00;;;;;14.23;nan;101606.25;6164479;22;45333;-85
2023/05/24 00:03:21;;;;;;;;;5.00;4.00;;;;;14.26;nan;101619.66;6163899;23;45571;-85
2023/05/24 00:05:47;;;;;;;;;4.33;4.00;;;;;14.17;nan;101609.72;6163065;23;45349;-85
2023/05/24 00:08:14;;;;;;;;;5.00;3.00;;;;;14.18;nan;101611.53;6162348;22;45388;-85
2023/05/24 00:10:40;;;;;;;;;10.00;5.67;;;;;14.14;nan;101608.81;6164450;22;45304;-85
2023/05/24 00:13:05;;;;;;;;;0.67;0.00;;;;;14.11;nan;101612.31;6166165;22;45239;-85
2023/05/24 00:15:31;;;;;;;;;5.00;5.00;;;;;14.03;nan;101602.41;6164828;22;45303;-85
2023/05/24 00:17:56;;;;;;;;;5.67;5.00;;;;;14.02;nan;101598.84;6163758;23;45262;-85
2023/05/24 00:20:22;;;;;;;;;3.67;3.67;;;;;14.04;nan;101605.13;6164983;23;45176;-85
2023/05/24 00:22:48;;;;;;;;;9.00;7.00;;;;;14.01;nan;101613.06;6165133;22;45274;-86
2023/05/24 00:25:13;;;;;;;;;6.33;4.67;;;;;13.96;nan;101588.06;6161628;22;45257;-85
2023/05/24 00:27:38;;;;;;;;;6.00;4.00;;;;;13.94;nan;101589.81;6161885;23;45484;-85
2023/05/24 00:30:05;;;;;;;;;4.00;3.67;;;;;13.97;nan;101585.38;6161338;23;45308;-85
2023/05/24 00:32:31;;;;;;;;;10.33;6.67;;;;;13.88;nan;101592.41;6160014;22;47008;-86
2023/05/24 00:34:56;;;;;;;;;7.33;7.33;;;;;13.87;nan;101587.91;6161434;22;45462;-84
2023/05/24 00:37:22;;;;;;;;;6.00;5.00;;;;;13.90;nan;101587.97;6163284;22;45362;-86
2023/05/24 00:39:47;;;;;;;;;5.00;4.33;;;;;13.90;nan;101579.97;6162475;22;45586;-84
2023/05/24 00:42:13;;;;;;;;;5.00;3.00;;;;;13.76;nan;101567.28;6162385;22;45476;-85
2023/05/24 00:44:38;;;;;;;;;6.00;6.00;;;;;13.76;nan;101575.31;6162482;22;45416;-84
2023/05/24 00:47:04;;;;;;;;;9.33;5.00;;;;;13.77;nan;101571.72;6137499;23;45800;-85
2023/05/24 00:49:30;;;;;;;;;6.33;4.00;;;;;13.76;nan;101577.97;6137112;23;45385;-85
2023/05/24 00:51:56;;;;;;;;;4.67;4.67;;;;;13.77;nan;101571.72;6164570;22;45408;-84
2023/05/24 00:54:21;;;;;;;;;5.00;5.00;;;;;13.71;nan;101576.09;6138316;23;44730;-84
2023/05/24 00:56:48;;;;;;;;;4.33;4.33;;;;;13.73;nan;101572.56;6139025;23;45348;-86
2023/05/24 00:59:13;;;;;;;;;5.00;5.00;;;;;13.70;nan;101568.97;6137962;23;45536;-84
2023/05/24 01:01:40;;;;;;;;;8.00;5.67;;;;;13.69;nan;101567.16;6137434;22;46984;-84
2023/05/24 01:04:06;;;;;;;;;4.00;4.00;;;;;13.63;nan;101557.28;6136400;23;45399;-85
2023/05/24 01:06:43;;;;;;;;;6.67;5.00;;;;;13.82;nan;101574.50;6164714;22;45328;-85
2023/05/24 01:09:21;;;;;;;;;4.33;3.67;;;;;13.83;nan;101578.06;6136895;23;45383;-85
2023/05/24 01:12:31;;;;;;;;;3.67;3.67;;;;;13.82;nan;101569.16;6164423;22;45167;-84
2023/05/24 01:15:07;;;;;;;;;5.67;5.67;;;;;13.80;nan;101573.56;6099617;23;45415;-85
2023/05/24 01:17:45;;;;;;;;;7.00;4.33;;;;;13.72;nan;101578.81;6137032;23;44746;-84
2023/05/24 01:20:13;;;;;;;;;5.00;4.33;;;;;13.75;nan;101580.63;6136990;23;45460;-85
2023/05/24 01:23:13;;;;;;;;;6.67;4.00;;;;;13.82;nan;101587.88;6136348;23;48327;-84
2023/05/24 01:25:57;;;;;;;;;9.33;7.33;;;;;13.79;nan;101583.38;6136592;23;45855;-85
2023/05/24 01:28:23;;;;;;;;;6.00;4.67;;;;;13.65;nan;101570.66;6139242;23;45290;-85
2023/05/24 01:30:49;;;;;;;;;7.00;7.00;;;;;13.57;nan;101573.22;6163027;23;45420;-84
2023/05/24 01:33:14;;;;;;;;;8.33;8.33;;;;;13.53;nan;101583.00;6164025;22;45381;-85
2023/05/24 01:35:41;;;;;;;;;5.33;4.00;;;;;13.49;nan;101583.81;6162852;23;45426;-85
2023/05/24 01:38:07;;;;;;;;;9.00;4.67;;;;;13.43;nan;101580.13;6136169;23;45399;-85
2023/05/24 01:40:34;;;;;;;;;4.67;4.67;;;;;13.39;nan;101571.16;6136840;23;45338;-85
2023/05/24 01:43:08;;;;;;;;;4.67;4.67;;;;;13.46;nan;101588.22;6136752;23;46106;-84
2023/05/24 01:45:43;;;;;;;;;6.33;5.00;;;;;13.43;nan;101590.81;6135276;23;45360;-84
2023/05/24 01:48:17;;;;;;;;;5.00;5.00;;;;;13.33;nan;101590.69;6136792;23;45419;-84
2023/05/24 01:51:07;;;;;;;;;6.33;5.00;;;;;13.33;nan;101593.34;6137434;23;45563;-84
2023/05/24 01:53:38;;;;;;;;;7.33;6.33;;;;;13.28;nan;101586.09;6135269;23;48174;-85
2023/05/24 01:56:05;;;;;;;;;4.00;4.00;;;;;13.22;nan;101578.88;6136068;23;45285;-84
2023/05/24 01:58:35;;;;;;;;;6.33;5.00;;;;;13.20;nan;101591.31;6135691;23;45491;-84
2023/05/24 02:01:01;;;;;;;;;9.00;4.00;;;;;13.23;nan;101598.47;6137681;23;45532;-84
2023/05/24 02:03:27;;;;;;;;;6.67;5.00;;;;;13.18;nan;101590.38;6137747;22;47336;-84
2023/05/24 02:05:52;;;;;;;;;8.67;6.33;;;;;13.13;nan;101582.31;6163688;23;45631;-85
2023/05/24 02:08:18;;;;;;;;;9.67;5.67;;;;;13.15;nan;101596.59;6136017;22;45292;-85
2023/05/24 02:10:43;;;;;;;;;5.67;5.67;;;;;13.14;nan;101592.09;6135527;23;45293;-86
2023/05/24 02:13:09;;;;;;;;;8.67;8.33;;;;;13.09;nan;101584.88;6135317;23;46965;-85
2023/05/24 02:15:34;;;;;;;;;8.00;6.67;;;;;13.15;nan;101587.69;6136905;23;45619;-85
2023/05/24 02:18:00;;;;;;;;;4.00;4.00;;;;;13.13;nan;101590.31;6165444;22;45502;-85
2023/05/24 02:20:29;;;;;;;;;9.00;5.00;;;;;13.05;nan;101589.28;6137550;23;45768;-85
2023/05/24 02:22:55;;;;;;;;;6.33;5.67;;;;;13.02;nan;101584.75;6136374;23;47601;-85
2023/05/24 02:25:21;;;;;;;;;8.00;5.00;;;;;12.98;nan;101576.69;6135484;23;45325;-86
2023/05/24 02:27:46;;;;;;;;;5.67;5.67;;;;;13.05;nan;101581.28;6164189;23;45334;-86
2023/05/24 02:30:12;;;;;;;;;3.00;3.00;;;;;13.04;nan;101589.25;6163635;22;45277;-84
2023/05/24 02:32:38;;;;;;;;;7.67;7.67;;;;;12.94;nan;101586.41;6137057;23;46958;-84
2023/05/24 02:35:04;;;;;;;;;4.33;4.33;;;;;12.96;nan;101579.31;6136513;23;45782;-84
2023/05/24 02:37:29;;;;;;;;;9.33;8.00;;;;;12.87;nan;101581.84;6136273;23;45430;-83
2023/05/24 02:39:55;;;;;;;;;8.00;7.00;;;;;12.82;nan;101575.50;6163829;22;45613;-84
2023/05/24 02:42:23;;;;;;;;;7.00;5.33;;;;;12.91;nan;101578.34;6162049;23;45341;-84
2023/05/24 02:44:51;;;;;;;;;5.33;4.67;;;;;12.75;nan;101576.28;6163059;22;45363;-84
2023/05/24 02:47:19;;;;;;;;;5.00;5.00;;;;;12.75;nan;101573.63;6163177;23;45314;-84
2023/05/24 02:49:48;;;;;;;;;7.33;5.67;;;;;12.84;nan;101578.22;6137064;23;45562;-84
2023/05/24 02:52:14;;;;;;;;;10.00;7.00;;;;;12.68;nan;101569.91;6163372;23;46077;-84
2023/05/24 02:54:40;;;;;;;;;6.00;6.00;;;;;12.63;nan;101557.38;6164293;23;45422;-84
2023/05/24 02:57:11;;;;;;;;;5.00;5.00;;;;;12.79;nan;101559.44;6162589;23;45222;-85
2023/05/24 02:59:37;;;;;;;;;6.33;6.33;;;;;12.66;nan;101557.41;6135831;23;45413;-85
2023/05/24 03:02:02;;;;;;;;;13.33;8.00;;;;;12.68;nan;101555.66;6136535;23;46884;-86
2023/05/24 03:04:28;;;;;;;;;7.00;7.00;;;;;12.67;nan;101561.91;6164207;22;45723;-85
2023/05/24 03:06:53;;;;;;;;;9.00;5.33;;;;;12.67;nan;101577.91;6165368;23;45329;-85
2023/05/24 03:09:18;;;;;;;;;7.33;6.33;;;;;12.59;nan;101564.41;6166687;23;45380;-84
2023/05/24 03:11:44;;;;;;;;;9.00;5.00;;;;;12.59;nan;101570.66;6136795;23;46762;-84
2023/05/24 03:14:10;;;;;;;;;7.00;4.67;;;;;12.60;nan;101563.53;6163895;23;45386;-85
2023/05/24 03:16:36;;;;;;;;;8.33;7.00;;;;;12.52;nan;101555.41;6137745;23;45286;-85
2023/05/24 03:19:02;;;;;;;;;8.00;6.33;;;;;12.58;nan;101559.94;6137761;23;45540;-84
2023/05/24 03:21:27;;;;;;;;;8.67;7.00;;;;;12.58;nan;101562.59;6164499;23;45634;-85
2023/05/24 03:23:59;;;;;;;;;6.00;6.00;;;;;12.55;nan;101565.22;6164020;23;45259;-85
2023/05/24 03:26:25;;;;;;;;;8.00;7.00;;;;;12.51;nan;101560.69;6137515;23;45387;-84
2023/05/24 03:28:53;;;;;;;;;8.00;7.00;;;;;12.56;nan;101573.28;6138299;23;45233;-84
2023/05/24 03:31:19;;;;;;;;;8.67;6.33;;;;;12.50;nan;101567.81;6137269;23;46911;-85
2023/05/24 03:33:45;;;;;;;;;10.33;5.00;;;;;12.45;nan;101556.16;6164415;23;45190;-83
2023/05/24 03:36:13;;;;;;;;;10.67;9.00;;;;;12.61;nan;101566.22;6136577;22;45343;-84
2023/05/24 03:38:38;;;;;;;;;8.00;5.33;;;;;12.54;nan;101559.00;6136588;23;45317;-86
2023/05/24 03:41:03;;;;;;;;;10.00;9.00;;;;;12.53;nan;101575.88;6138709;23;47329;-84
2023/05/24 03:43:29;;;;;;;;;7.00;5.33;;;;;12.50;nan;101567.81;6159291;23;45387;-84
2023/05/24 03:45:54;;;;;;;;;6.33;6.33;;;;;12.46;nan;101565.94;6159107;23;45424;-85
2023/05/24 03:48:20;;;;;;;;;8.00;4.33;;;;;12.50;nan;101567.81;6162703;22;45321;-84
2023/05/24 03:50:46;;;;;;;;;8.00;7.00;;;;;12.53;nan;101573.19;6161166;23;48302;-84
2023/05/24 03:53:12;;;;;;;;;8.00;8.00;;;;;12.46;nan;101568.59;6160931;23;45241;-84
2023/05/24 03:55:37;;;;;;;;;8.33;6.33;;;;;12.45;nan;101568.59;6162263;23;45243;-84
2023/05/24 03:58:03;;;;;;;;;4.00;4.00;;;;;12.53;nan;101575.88;6162491;23;45507;-84
2023/05/24 04:00:28;;;;;;;;;7.67;7.67;;;;;12.59;nan;101586.66;6161886;23;47376;-85
2023/05/24 04:02:54;;;;;;;;;4.00;4.00;;;;;12.63;nan;101584.94;6162510;23;45146;-84
2023/05/24 04:05:20;;;;;;;;;6.33;5.33;;;;;12.64;nan;101583.19;6162430;23;45341;-84
2023/05/24 04:07:46;;;;;;;;;7.00;6.33;;;;;12.67;nan;101570.78;6163253;23;45382;-84
2023/05/24 04:10:13;;;;;;;;;4.00;4.00;;;;;12.73;nan;101580.69;6163904;22;46539;-84
2023/05/24 04:12:39;;;;;;;;;6.67;5.00;;;;;12.72;nan;101579.78;6164395;23;45451;-84
2023/05/24 04:15:06;;;;;;;;;4.00;4.00;;;;;12.73;nan;101580.69;6162468;23;45331;-85
2023/05/24 04:17:33;;;;;;;;;4.00;4.00;;;;;12.72;nan;101579.78;6163415;23;45246;-85
2023/05/24 04:19:59;;;;;;;;;8.00;6.33;;;;;12.74;nan;101571.81;6164563;23;45247;-85
2023/05/24 04:22:24;;;;;;;;;8.00;8.00;;;;;12.80;nan;101582.59;6163563;23;45680;-85
2023/05/24 04:24:50;;;;;;;;;5.33;5.33;;;;;12.83;nan;101585.34;6162969;23;45244;-84
2023/05/24 04:27:16;;;;;;;;;7.33;7.33;;;;;12.85;nan;101588.94;6159925;22;45248;-85
2023/05/24 04:29:48;;;;;;;;;7.00;5.67;;;;;12.93;nan;101589.97;6160807;23;45444;-85
2023/05/24 04:32:14;;;;;;;;;8.00;4.00;;;;;12.89;nan;101588.09;6160931;22;45279;-85
2023/05/24 04:34:41;;;;;;;;;10.00;8.00;;;;;12.84;nan;101578.22;6160231;22;45331;-84
2023/05/24 04:37:07;;;;;;;;;10.33;8.00;;;;;12.88;nan;101591.63;6161001;22;45231;-85
2023/05/24 04:39:32;;;;;;;;;6.67;4.33;;;;;12.93;nan;101595.31;6159353;23;46621;-84
2023/05/24 04:42:00;;;;;;;;;9.67;5.67;;;;;12.96;nan;101599.78;6161582;22;45530;-84
2023/05/24 04:44:26;;;;;;;;;5.00;5.00;;;;;12.97;nan;101594.47;6137632;23;45321;-85
2023/05/24 04:46:52;;;;;;;;;6.00;6.00;;;;;13.11;nan;101600.06;6137290;23;45247;-85
2023/05/24 04:49:18;;;;;;;;;7.33;7.33;;;;;13.12;nan;101612.53;6163949;23;46248;-83
2023/05/24 04:51:45;;;;;;;;;7.67;6.00;;;;;13.23;nan;101615.41;6164149;23;45123;-86
2023/05/24 04:54:11;;;;;;;;;9.67;8.00;;;;;13.20;nan;101618.91;6137346;23;45447;-85
2023/05/24 04:56:37;;;;;;;;;7.33;5.67;;;;;13.17;nan;101620.66;6134346;23;45466;-85
2023/05/24 04:59:04;;;;;;;;;3.33;3.33;;;;;13.14;nan;101612.56;6135033;23;45755;-85
2023/05/24 05:01:30;;;;;;;;;7.00;5.67;;;;;13.16;nan;101616.16;6164440;23;45355;-85
2023/05/24 05:03:55;;;;;;;;;9.67;7.33;;;;;13.24;nan;101611.84;6137909;23;45342;-85
2023/05/24 05:06:24;;;;;;;;;3.33;3.00;;;;;13.42;nan;101610.41;6137765;22;45489;-85
2023/05/24 05:08:50;;;;;;;;;4.67;4.67;;;;;13.46;nan;101617.59;6137246;22;45355;-85
2023/05/24 05:11:17;;;;;;;;;7.00;7.00;;;;;13.58;nan;101623.16;6138124;23;45557;-85
2023/05/24 05:13:43;;;;;;;;;10.33;8.67;;;;;13.63;nan;101615.19;6136308;23;45381;-86
2023/05/24 05:16:09;;;;;;;;;9.00;6.67;;;;;13.64;nan;101611.66;6136689;23;45748;-86
2023/05/24 05:18:35;;;;;;;;;10.33;10.33;;;;;13.80;nan;101619.03;6162541;22;45340;-85
2023/05/24 05:21:02;;;;;;;;;4.67;4.67;;;;;13.90;nan;101620.06;6137065;23;45253;-85
2023/05/24 05:23:28;;;;;;;;;5.33;5.33;;;;;13.93;nan;101610.28;6165522;23;44745;-84
2023/05/24 05:25:56;;;;;;;;;9.00;7.00;;;;;14.11;nan;101609.66;6164542;22;45254;-84
2023/05/24 05:28:22;;;;;;;;;10.00;6.00;;;;;14.02;nan;101609.53;6137442;23;46920;-84
2023/05/24 05:30:47;;;;;;;;;5.67;4.67;;;;;14.18;nan;101605.31;6163459;22;45429;-85
2023/05/24 05:33:13;;;;;;;;;5.00;5.00;;;;;14.37;nan;101595.72;6139388;23;45395;-84
2023/05/24 05:35:38;;;;;;;;;7.00;4.67;;;;;14.50;nan;101583.38;6167447;22;45454;-84
2023/05/24 05:38:03;;;;;;;;;8.00;6.00;;;;;14.73;nan;101605.09;6167315;23;45498;-85
2023/05/24 05:40:29;;;;;;;;;6.00;4.67;;;;;14.82;nan;101605.16;6140536;23;45459;-84
2023/05/24 05:42:54;;;;;;;;;5.67;5.00;;;;;14.93;nan;101603.50;6161714;23;45587;-85
2023/05/24 05:45:20;;;;;;;;;11.00;6.67;;;;;14.93;nan;101611.53;6165418;23;45372;-85
2023/05/24 05:47:45;;;;;;;;;10.00;6.00;;;;;14.95;nan;101601.75;6164003;23;47981;-84
2023/05/24 05:50:14;;;;;;;;;9.67;8.00;;;;;15.08;nan;101602.75;6163743;23;45326;-85
2023/05/24 05:52:39;;;;;;;;;4.00;4.00;;;;;14.99;nan;101603.56;6166902;23;44855;-85
2023/05/24 05:55:11;;;;;;;;;11.00;6.00;;;;;15.09;nan;101592.91;6165434;23;45345;-85
2023/05/24 05:57:36;;;;;;;;;2.00;2.00;;;;;15.15;nan;101598.38;6167775;23;45367;-85
2023/05/24 06:00:02;;;;;;;;;3.00;2.33;;;;;15.12;nan;101604.56;6166771;23;45315;-86
2023/05/24 06:02:28;;;;;;;;;5.67;4.67;;;;;15.15;nan;101606.41;6165646;23;44813;-86
2023/05/24 06:04:53;;;;;;;;;7.33;5.00;;;;;15.12;nan;101603.69;6166165;23;45189;-85
2023/05/24 06:07:19;;;;;;;;;8.33;7.33;;;;;15.13;nan;101600.13;6167794;23;45513;-86
2023/05/24 06:09:44;;;;;;;;;6.00;5.33;;;;;15.12;nan;101603.69;6169659;23;45395;-86
2023/05/24 06:12:10;;;;;;;;;5.33;4.33;;;;;15.19;nan;101603.75;6166319;22;44739;-85
2023/05/24 06:14:37;;;;;;;;;9.00;5.00;;;;;15.24;nan;101605.56;6167016;22;45104;-85
2023/05/24 06:17:23;;;;;;;;;8.67;6.00;;;;;15.43;nan;101601.25;6167925;22;47907;-84
2023/05/24 06:19:50;;;;;;;;;8.33;5.00;;;;;15.40;nan;101599.47;6165854;23;46195;-85
2023/05/24 06:22:16;;;;;;;;;4.00;4.00;;;;;15.50;nan;101619.19;6167789;22;45255;-85
2023/05/24 06:24:42;;;;;;;;;5.33;5.00;;;;;15.38;nan;101614.63;6165875;22;45480;-85
2023/05/24 06:27:20;;;;;;;;;6.00;6.00;;;;;15.44;nan;101620.03;6170237;22;46890;-85
2023/05/24 06:29:45;;;;;;;;;6.00;6.00;;;;;15.48;nan;101618.28;6174219;22;45740;-86
2023/05/24 06:32:23;;;;;;;;;5.67;4.33;;;;;15.61;nan;101620.16;6174938;22;45332;-85
2023/05/24 06:34:52;;;;;;;;;5.67;4.67;;;;;15.43;nan;101611.97;6171841;23;44763;-85
2023/05/24 06:37:23;;;;;;;;;10.33;5.00;;;;;15.49;nan;101615.63;6172957;22;46945;-84
2023/05/24 06:39:52;;;;;;;;;8.00;5.00;;;;;15.49;nan;101625.44;6169512;22;45415;-84
2023/05/24 06:42:18;;;;;;;;;3.00;3.00;;;;;15.60;nan;101629.09;6141010;23;45302;-85
2023/05/24 06:44:53;;;;;;;;;5.00;5.00;;;;;15.82;nan;101623.94;6169389;23;45384;-87
2023/05/24 06:47:20;;;;;;;;;6.67;6.00;;;;;15.73;nan;101620.28;6172992;22;46860;-85
2023/05/24 06:49:46;;;;;;;;;9.67;6.00;;;;;15.69;nan;101613.06;6170328;22;45578;-84
2023/05/24 06:52:12;;;;;;;;;8.33;6.33;;;;;15.67;nan;101622.88;6169340;22;44813;-86
2023/05/24 06:54:45;;;;;;;;;5.00;4.33;;;;;15.63;nan;101612.13;6170722;22;44842;-85
2023/05/24 06:57:13;;;;;;;;;5.67;5.67;;;;;15.70;nan;101628.28;6168690;22;46135;-85
2023/05/24 06:59:45;;;;;;;;;4.33;4.33;;;;;15.89;nan;101632.00;6170100;22;45366;-86
2023/05/24 07:02:12;;;;;;;;;9.00;5.33;;;;;15.85;nan;101615.91;6167919;23;45447;-85
2023/05/24 07:04:39;;;;;;;;;4.00;3.67;;;;;15.80;nan;101627.50;6168516;23;45447;-85
2023/05/24 07:07:11;;;;;;;;;7.33;4.67;;;;;15.88;nan;101640.06;6170468;23;45417;-87
2023/05/24 07:09:41;;;;;;;;;8.00;6.00;;;;;15.62;nan;101616.59;6167482;23;45428;-86
2023/05/24 07:12:07;;;;;;;;;7.67;7.00;;;;;15.57;nan;101626.38;6171408;22;45225;-86
2023/05/24 07:14:42;;;;;;;;;9.33;6.00;;;;;15.85;nan;101640.94;6172893;22;45638;-85
2023/05/24 07:17:18;;;;;;;;;10.67;8.00;;;;;15.98;nan;101649.97;6168857;23;46823;-86
2023/05/24 07:19:48;;;;;;;;;10.00;6.67;;;;;15.96;nan;101622.25;6172153;23;45296;-84
2023/05/24 07:22:15;;;;;;;;;8.33;6.67;;;;;15.90;nan;101612.34;6144813;23;45682;-85
2023/05/24 07:25:08;;;;;;;;;9.33;5.33;;;;;16.22;nan;101634.88;6172915;23;45217;-87
2023/05/24 07:27:46;;;;;;;;;7.67;5.67;;;;;16.38;nan;101636.75;6116950;23;46689;-85
2023/05/24 07:30:30;;;;;;;;;6.33;5.67;;;;;16.50;nan;101634.13;6176245;22;44664;-86
2023/05/24 07:32:58;;;;;;;;;5.00;5.00;;;;;16.47;nan;101631.44;6171723;22;45416;-86
2023/05/24 07:35:28;;;;;;;;;8.00;5.33;;;;;16.40;nan;101606.34;6169903;23;44772;-84
2023/05/24 07:39:04;;;;;;;;;6.00;6.00;;;;;16.77;nan;101632.44;6171428;23;45003;-86
2023/05/24 07:45:45;;;;;;;;;4.67;4.67;;;;;17.13;nan;101639.72;6160506;22;44870;-84
2023/05/24 07:48:20;;;;;;;;;5.00;5.00;;;;;17.05;nan;101649.56;6141115;22;45402;-86
2023/05/24 07:50:51;;;;;;;;;8.67;6.00;;;;;16.93;nan;101631.59;6093050;23;45559;-84
2023/05/24 07:53:18;;;;;;;;;5.00;5.00;;;;;16.95;nan;101648.63;6116914;23;45229;-83
2023/05/24 07:56:01;;;;;;;;;5.00;5.00;;;;;17.03;nan;101639.66;6143664;22;45333;-86
2023/05/24 07:58:26;;;;;;;;;5.33;5.33;;;;;16.96;nan;101630.69;6115471;23;45385;-83
2023/05/24 08:00:55;;;;;;;;;4.33;4.33;;;;;17.17;nan;101641.50;6116858;23;47967;-84
2023/05/24 08:03:29;;;;;;;;;3.33;3.33;;;;;17.39;nan;101647.78;6140721;23;45307;-84
2023/05/24 08:05:58;;;;;;;;;3.67;3.67;;;;;17.35;nan;101619.13;6115002;23;45411;-84
2023/05/24 08:08:23;;;;;;;;;5.33;4.33;;;;;17.20;nan;101635.22;6113390;23;45199;-84
2023/05/24 08:10:51;;;;;;;;;7.67;4.67;;;;;16.99;nan;101607.44;6138311;22;45688;-83
2023/05/24 08:13:16;;;;;;;;;4.00;4.00;;;;;17.09;nan;101631.66;6112048;23;45273;-83
2023/05/24 08:16:19;;;;;;;;;4.33;3.67;;;;;17.20;nan;101646.88;6112830;23;45523;-85
2023/05/24 08:22:13;;;;;;;;;6.33;4.33;;;;;17.19;nan;101631.66;6141603;22;45298;-85
2023/05/24 08:25:10;;;;;;;;;3.67;2.67;;;;;17.40;nan;101643.31;6140104;22;45405;-85
2023/05/24 08:27:44;;;;;;;;;5.33;3.00;;;;;17.23;nan;101621.81;6141243;22;45482;-85
2023/05/24 08:30:12;;;;;;;;;4.67;3.67;;;;;17.24;nan;101652.25;6113180;23;45374;-84
2023/05/24 08:32:53;;;;;;;;;4.67;3.67;;;;;17.32;nan;101651.34;6110655;22;46141;-82
2023/05/24 08:35:19;;;;;;;;;2.33;2.00;;;;;17.23;nan;101645.06;6138455;23;45451;-82
2023/05/24 08:45:53;;;;;;;;;1.00;1.00;;;;;17.38;nan;101627.16;6121709;22;45324;-86
2023/05/24 08:48:50;;;;;;;;;3.00;3.00;;;;;17.38;nan;101619.09;6171958;22;44754;-86
2023/05/24 08:51:26;;;;;;;;;4.00;3.00;;;;;17.68;nan;101652.28;6174278;23;45273;-84
2023/05/24 08:54:15;;;;;;;;;7.00;3.67;;;;;17.74;nan;101641.50;6148013;23;46738;-86
2023/05/24 08:57:21;;;;;;;;;3.00;3.00;;;;;17.90;nan;101642.41;6142930;23;45186;-84
2023/05/24 09:11:51;;;;;;;;;3.33;3.00;;;;;17.85;nan;101641.50;6168503;22;45551;-85
2023/05/24 09:23:13;;;;;;;;;1.00;1.00;;;;;18.27;nan;101622.56;6116401;22;45230;-85
2023/05/24 09:26:03;;;;;;;;;3.33;3.33;;;;;18.13;nan;101599.28;6116256;23;45242;-85
2023/05/24 09:28:43;;;;;;;;;4.00;2.67;;;;;18.13;nan;101576.84;6122557;23;46838;-85
2023/05/24 09:31:20;;;;;;;;;2.33;2.33;;;;;18.29;nan;101583.06;6121983;23;45254;-86
2023/05/24 09:34:31;;;;;;;;;3.33;1.00;;;;;18.45;nan;101603.63;6118136;23;45511;-86
2023/05/24 09:38:10;;;;;;;;;3.00;2.00;;;;;18.25;nan;101578.59;6143518;23;44937;-87
2023/05/24 09:44:36;;;;;;;;;;;;;;;;;;;;;
2023/05/24 09:57:57;;;;;;;;;2.67;2.67;;;;;18.49;nan;101609.91;6152260;22;45258;-87
2023/05/24 10:00:46;;;;;;;;;2.00;1.33;;;;;18.40;nan;101573.16;6128506;23;44746;-86
2023/05/24 10:04:06;;;;;;;;;2.00;2.00;;;;;18.52;nan;101582.94;6153084;22;45268;-86
2023/05/24 10:06:50;;;;;;;;;3.33;3.00;;;;;18.69;nan;101607.13;5942526;23;45480;-86
2023/05/24 10:09:34;;;;;;;;;3.00;2.00;;;;;18.51;nan;101560.50;5917208;23;44875;-87
2023/05/24 10:12:30;;;;;;;;;3.00;3.00;;;;;18.85;nan;101603.44;5942432;23;45350;-87
2023/05/24 10:15:06;;;;;;;;;2.00;2.00;;;;;18.86;nan;101604.34;5913919;23;45325;-87
2023/05/24 10:20:18;;;;;;;;;4.00;2.67;;;;;18.85;nan;101568.41;6161563;22;45458;-84
2023/05/24 10:23:22;;;;;;;;;3.00;2.00;;;;;19.08;nan;101599.69;6141897;23;45432;-87
2023/05/24 10:26:05;;;;;;;;;2.67;2.67;;;;;18.97;nan;101573.72;6168541;22;45384;-84
2023/05/24 10:28:44;;;;;;;;;3.00;1.33;;;;;19.14;nan;101592.44;6138302;23;45339;-86
2023/05/24 10:31:37;;;;;;;;;2.00;2.00;;;;;19.29;nan;101594.16;6113374;23;45239;-85
2023/05/24 10:34:09;;;;;;;;;3.00;1.00;;;;;19.24;nan;101587.88;6119492;23;44799;-85
2023/05/24 10:36:55;;;;;;;;;1.00;1.00;;;;;19.32;nan;101583.31;6117704;23;46940;-85
2023/05/24 10:43:10;;;;;;;;;2.00;2.00;;;;;19.50;nan;101584.97;6139296;23;45450;-86
2023/05/24 10:45:57;;;;;;;;;3.33;3.00;;;;;19.55;nan;101583.13;6137030;23;45342;-84
2023/05/24 10:48:39;;;;;;;;;;;;;;;;;;;;;
2023/05/24 10:52:15;;;;;;;;;2.33;2.33;;;;;19.59;nan;101592.97;6125386;23;45352;-83
2023/05/24 10:58:19;;;;;;;;;5.00;3.00;;;;;19.50;nan;101576.88;6052169;23;44876;-83
2023/05/24 11:01:02;;;;;;;;;2.00;2.00;;;;;19.36;nan;101558.09;6053397;23;46663;-84
2023/05/24 11:03:48;;;;;;;;;3.00;2.00;;;;;19.59;nan;101582.19;6053742;23;45406;-82
2023/05/24 11:06:50;;;;;;;;;3.00;3.00;;;;;19.58;nan;101557.91;6082393;23;45374;-84
2023/05/24 11:10:04;;;;;;;;;4.33;2.33;;;;;19.66;nan;101569.50;6057304;23;45239;-83
2023/05/24 11:16:29;;;;;;;;;2.00;2.00;;;;;19.93;nan;101594.44;5999011;23;45260;-85
2023/05/24 11:27:07;;;;;;;;;3.00;3.00;;;;;20.15;nan;101578.91;5852976;24;44989;-87
2023/05/24 11:50:51;;;;;;;;;3.67;3.00;;;;;19.90;nan;101556.72;5843797;24;45652;-84
2023/05/24 12:00:43;;;;;;;;;3.33;3.33;;;;;20.17;nan;101583.34;5910348;23;45969;-87
2023/05/24 14:46:35;;;;;;;;;3.33;3.00;;;;;36.31;nan;101393.78;6114217;22;46611;-85
2023/05/24 14:49:50;;;;;;;;;3.67;3.67;;;;;37.19;nan;101423.19;6099436;23;47047;-84
2023/05/24 14:53:13;;;;;;;;;6.00;5.33;;;;;37.00;nan;101417.47;6157148;23;45442;-84
2023/05/24 15:06:24;;;;;;;;;4.67;4.67;;;;;32.63;nan;101391.28;6048341;23;45460;-85
2023/05/24 15:08:50;;;;;;;;;7.67;5.00;;;;;31.06;nan;101422.50;6084305;23;45396;-85
2023/05/24 15:14:41;;;;;;;;;6.67;5.00;;;;;31.89;nan;101368.69;6160959;23;45510;-87
2023/05/24 15:37:06;;;;;;;;;;;;;;;;;;;;;
2023/05/24 15:40:17;;;;;;;;;4.67;4.67;;;;;33.25;nan;101398.94;6155341;22;71854;-87
2023/05/24 16:05:39;;;;;;;;;7.33;7.33;;;;;28.07;nan;101372.09;6165945;22;45602;-85
2023/05/24 16:08:04;;;;;;;;;8.67;7.00;;;;;28.10;nan;101394.72;6167735;23;45715;-86
2023/05/24 16:11:22;;;;;;;;;8.00;8.00;;;;;28.05;nan;101415.94;6167509;23;46185;-85
2023/05/24 16:17:10;;;;;;;;;10.33;9.33;;;;;27.07;nan;101407.66;6167200;23;45615;-85
2023/05/24 16:19:37;;;;;;;;;8.00;7.33;;;;;26.47;nan;101414.78;6139930;23;45404;-85
2023/05/24 16:22:03;;;;;;;;;7.33;7.33;;;;;25.76;nan;101412.13;6139859;23;47044;-85
2023/05/24 16:24:30;;;;;;;;;7.67;7.67;;;;;25.31;nan;101402.91;6140492;23;45425;-85
2023/05/24 16:26:58;;;;;;;;;8.00;8.00;;;;;24.89;nan;101408.91;6139477;23;45136;-86
2023/05/24 16:29:25;;;;;;;;;9.00;7.00;;;;;24.49;nan;101420.22;6139910;23;45465;-85
2023/05/24 16:31:53;;;;;;;;;6.00;6.00;;;;;24.07;nan;101412.50;6167594;22;46075;-86
2023/05/24 16:34:28;;;;;;;;;10.33;9.00;;;;;23.70;nan;101398.22;6165431;23;45333;-84
2023/05/24 16:36:57;;;;;;;;;6.67;6.67;;;;;23.24;nan;101396.81;6164145;22;45340;-85
2023/05/24 16:39:26;;;;;;;;;7.67;7.67;;;;;23.16;nan;101407.88;6137738;23;45214;-86
2023/05/24 16:41:52;;;;;;;;;10.33;9.00;;;;;23.10;nan;101418.03;6113992;23;47553;-85
2023/05/24 16:44:17;;;;;;;;;10.33;9.00;;;;;23.00;nan;101408.31;6138468;23;45265;-84
2023/05/24 16:46:46;;;;;;;;;6.00;6.00;;;;;23.07;nan;101407.28;6139518;23;44993;-85
2023/05/24 16:49:12;;;;;;;;;6.00;6.00;;;;;22.94;nan;101393.09;6166062;22;45503;-84
2023/05/24 16:51:38;;;;;;;;;8.00;6.00;;;;;22.97;nan;101402.06;6164511;23;45916;-84
2023/05/24 16:54:04;;;;;;;;;10.00;7.00;;;;;22.80;nan;101396.19;6137458;23;45388;-85
2023/05/24 16:56:31;;;;;;;;;8.67;6.67;;;;;22.65;nan;101386.63;6138718;23;45408;-84
2023/05/24 16:59:00;;;;;;;;;8.00;8.00;;;;;22.60;nan;101390.38;6138960;23;45517;-83
2023/05/24 17:01:25;;;;;;;;;5.33;5.33;;;;;22.34;nan;101383.81;6138290;23;47183;-84
2023/05/24 17:03:56;;;;;;;;;7.00;6.33;;;;;22.31;nan;101395.59;6138396;23;45362;-85
2023/05/24 17:06:21;;;;;;;;;9.00;8.00;;;;;22.09;nan;101386.19;6163252;23;45369;-83
2023/05/24 17:08:47;;;;;;;;;6.67;5.67;;;;;21.97;nan;101388.22;6163067;23;45287;-84
2023/05/24 17:14:37;;;;;;;;;8.00;6.67;;;;;21.87;nan;101410.16;6163267;23;45401;-85
2023/05/24 17:17:23;;;;;;;;;6.67;6.67;;;;;21.98;nan;101405.41;6163681;23;44882;-84
2023/05/24 17:19:51;;;;;;;;;2.00;2.00;;;;;21.96;nan;101409.97;6161616;23;45317;-83
2023/05/24 17:23:17;;;;;;;;;;;;;;;;;;;;;
2023/05/24 17:25:48;;;;;;;;;6.00;6.00;;;;;21.65;nan;101388.94;6163809;23;74140;-84
2023/05/24 17:28:14;;;;;;;;;5.00;5.00;;;;;21.38;nan;101383.16;6162600;23;45365;-85
2023/05/24 17:31:34;;;;;;;;;7.00;7.00;;;;;21.37;nan;101367.88;6164907;23;45317;-85
2023/05/24 17:34:00;;;;;;;;;7.00;6.00;;;;;21.38;nan;101404.81;6163539;23;47552;-84
2023/05/24 17:36:32;;;;;;;;;6.00;5.00;;;;;21.22;nan;101364.59;6164209;23;45549;-83
2023/05/24 17:38:58;;;;;;;;;7.33;6.00;;;;;21.35;nan;101407.59;6166465;23;45232;-84